sensor_id;sensor_type;location;lat;lon;timestamp;P1;durP1;ratioP1;P2;durP2;ratioP2
52274;SDS011;38228;50.940;4.024;2023-12-28T00:02:11;5.63;;;2.47;;
52274;SDS011;38228;50.940;4.024;2023-12-28T00:04:38;6.18;;;2.63;;
52274;SDS011;38228;50.940;4.024;2023-12-28T00:07:03;5.85;;;2.95;;
52274;SDS011;38228;50.940;4.024;2023-12-28T00:09:29;5.70;;;2.50;;
52274;SDS011;38228;50.940;4.024;2023-12-28T00:11:55;8.07;;;3.53;;
52274;SDS011;38228;50.940;4.024;2023-12-28T00:14:20;4.00;;;2.58;;
52274;SDS011;38228;50.940;4.024;2023-12-28T00:16:46;6.13;;;2.67;;
52274;SDS011;38228;50.940;4.024;2023-12-28T00:19:12;4.93;;;2.78;;
52274;SDS011;38228;50.940;4.024;2023-12-28T00:21:38;8.18;;;3.10;;
52274;SDS011;38228;50.940;4.024;2023-12-28T00:24:03;5.32;;;2.50;;
52274;SDS011;38228;50.940;4.024;2023-12-28T00:26:29;4.75;;;2.83;;
52274;SDS011;38228;50.940;4.024;2023-12-28T00:28:55;4.63;;;2.67;;
52274;SDS011;38228;50.940;4.024;2023-12-28T00:31:21;6.22;;;3.05;;
52274;SDS011;38228;50.940;4.024;2023-12-28T00:33:46;4.50;;;2.85;;
52274;SDS011;38228;50.940;4.024;2023-12-28T00:36:13;8.05;;;3.03;;
52274;SDS011;38228;50.940;4.024;2023-12-28T00:38:39;4.50;;;2.83;;
52274;SDS011;38228;50.940;4.024;2023-12-28T00:41:05;4.75;;;2.95;;
52274;SDS011;38228;50.940;4.024;2023-12-28T00:43:30;5.10;;;2.80;;
52274;SDS011;38228;50.940;4.024;2023-12-28T00:45:56;6.07;;;2.75;;
52274;SDS011;38228;50.940;4.024;2023-12-28T00:48:22;10.35;;;3.08;;
52274;SDS011;38228;50.940;4.024;2023-12-28T00:50:47;5.38;;;2.83;;
52274;SDS011;38228;50.940;4.024;2023-12-28T00:53:13;6.75;;;3.08;;
52274;SDS011;38228;50.940;4.024;2023-12-28T00:55:39;4.00;;;2.55;;
52274;SDS011;38228;50.940;4.024;2023-12-28T00:58:04;7.95;;;2.90;;
52274;SDS011;38228;50.940;4.024;2023-12-28T01:00:30;6.47;;;2.95;;
52274;SDS011;38228;50.940;4.024;2023-12-28T01:02:56;4.90;;;2.78;;
52274;SDS011;38228;50.940;4.024;2023-12-28T01:05:21;7.85;;;2.97;;
52274;SDS011;38228;50.940;4.024;2023-12-28T01:07:50;4.65;;;2.70;;
52274;SDS011;38228;50.940;4.024;2023-12-28T01:10:16;6.22;;;3.17;;
52274;SDS011;38228;50.940;4.024;2023-12-28T01:12:42;7.80;;;2.92;;
52274;SDS011;38228;50.940;4.024;2023-12-28T01:15:08;5.90;;;2.65;;
52274;SDS011;38228;50.940;4.024;2023-12-28T01:17:34;8.38;;;3.08;;
52274;SDS011;38228;50.940;4.024;2023-12-28T01:20:00;5.85;;;2.88;;
52274;SDS011;38228;50.940;4.024;2023-12-28T01:22:26;7.00;;;3.10;;
52274;SDS011;38228;50.940;4.024;2023-12-28T01:24:51;5.68;;;2.85;;
52274;SDS011;38228;50.940;4.024;2023-12-28T01:27:17;4.90;;;2.90;;
52274;SDS011;38228;50.940;4.024;2023-12-28T01:29:43;6.05;;;2.88;;
52274;SDS011;38228;50.940;4.024;2023-12-28T01:32:09;6.68;;;3.08;;
52274;SDS011;38228;50.940;4.024;2023-12-28T01:34:34;5.18;;;2.75;;
52274;SDS011;38228;50.940;4.024;2023-12-28T01:37:00;4.38;;;2.75;;
52274;SDS011;38228;50.940;4.024;2023-12-28T01:39:26;5.15;;;2.60;;
52274;SDS011;38228;50.940;4.024;2023-12-28T01:41:51;5.65;;;3.08;;
52274;SDS011;38228;50.940;4.024;2023-12-28T01:44:17;4.90;;;2.60;;
52274;SDS011;38228;50.940;4.024;2023-12-28T01:46:43;4.93;;;2.83;;
52274;SDS011;38228;50.940;4.024;2023-12-28T01:49:08;4.97;;;2.65;;
52274;SDS011;38228;50.940;4.024;2023-12-28T01:51:34;10.65;;;2.95;;
52274;SDS011;38228;50.940;4.024;2023-12-28T01:54:01;4.50;;;2.75;;
52274;SDS011;38228;50.940;4.024;2023-12-28T01:56:27;4.78;;;2.50;;
52274;SDS011;38228;50.940;4.024;2023-12-28T01:58:53;6.07;;;2.70;;
52274;SDS011;38228;50.940;4.024;2023-12-28T02:01:19;6.10;;;2.67;;
52274;SDS011;38228;50.940;4.024;2023-12-28T02:03:46;6.03;;;2.58;;
52274;SDS011;38228;50.940;4.024;2023-12-28T02:06:12;4.22;;;2.28;;
52274;SDS011;38228;50.940;4.024;2023-12-28T02:08:41;7.28;;;2.95;;
52274;SDS011;38228;50.940;4.024;2023-12-28T02:11:07;5.55;;;2.60;;
52274;SDS011;38228;50.940;4.024;2023-12-28T02:13:33;8.60;;;2.63;;
52274;SDS011;38228;50.940;4.024;2023-12-28T02:16:02;6.82;;;2.70;;
52274;SDS011;38228;50.940;4.024;2023-12-28T02:18:38;5.18;;;2.40;;
52274;SDS011;38228;50.940;4.024;2023-12-28T02:21:08;4.63;;;2.35;;
52274;SDS011;38228;50.940;4.024;2023-12-28T02:23:34;7.70;;;2.47;;
52274;SDS011;38228;50.940;4.024;2023-12-28T02:25:59;5.82;;;3.03;;
52274;SDS011;38228;50.940;4.024;2023-12-28T02:28:26;5.22;;;2.42;;
52274;SDS011;38228;50.940;4.024;2023-12-28T02:30:51;7.63;;;2.75;;
52274;SDS011;38228;50.940;4.024;2023-12-28T02:33:33;4.70;;;2.65;;
52274;SDS011;38228;50.940;4.024;2023-12-28T02:36:07;6.18;;;2.33;;
52274;SDS011;38228;50.940;4.024;2023-12-28T02:38:36;4.90;;;2.67;;
52274;SDS011;38228;50.940;4.024;2023-12-28T02:41:03;6.90;;;2.63;;
52274;SDS011;38228;50.940;4.024;2023-12-28T02:43:30;7.85;;;2.60;;
52274;SDS011;38228;50.940;4.024;2023-12-28T02:45:58;5.82;;;2.55;;
52274;SDS011;38228;50.940;4.024;2023-12-28T02:48:24;9.10;;;2.63;;
52274;SDS011;38228;50.940;4.024;2023-12-28T02:50:50;6.90;;;2.78;;
52274;SDS011;38228;50.940;4.024;2023-12-28T02:53:16;5.20;;;2.58;;
52274;SDS011;38228;50.940;4.024;2023-12-28T02:55:42;7.00;;;2.78;;
52274;SDS011;38228;50.940;4.024;2023-12-28T02:58:08;7.25;;;2.67;;
52274;SDS011;38228;50.940;4.024;2023-12-28T03:00:33;6.68;;;2.60;;
52274;SDS011;38228;50.940;4.024;2023-12-28T03:02:59;9.82;;;3.30;;
52274;SDS011;38228;50.940;4.024;2023-12-28T03:05:25;8.13;;;2.90;;
52274;SDS011;38228;50.940;4.024;2023-12-28T03:07:50;5.78;;;2.88;;
52274;SDS011;38228;50.940;4.024;2023-12-28T03:10:16;5.47;;;2.58;;
52274;SDS011;38228;50.940;4.024;2023-12-28T03:12:42;8.40;;;2.88;;
52274;SDS011;38228;50.940;4.024;2023-12-28T03:15:08;6.00;;;2.63;;
52274;SDS011;38228;50.940;4.024;2023-12-28T03:17:33;8.85;;;2.92;;
52274;SDS011;38228;50.940;4.024;2023-12-28T03:20:01;6.80;;;3.10;;
52274;SDS011;38228;50.940;4.024;2023-12-28T03:22:27;7.75;;;3.33;;
52274;SDS011;38228;50.940;4.024;2023-12-28T03:24:53;8.23;;;2.58;;
52274;SDS011;38228;50.940;4.024;2023-12-28T03:27:19;8.45;;;2.38;;
52274;SDS011;38228;50.940;4.024;2023-12-28T03:29:44;10.85;;;3.25;;
52274;SDS011;38228;50.940;4.024;2023-12-28T03:32:10;8.02;;;2.80;;
52274;SDS011;38228;50.940;4.024;2023-12-28T03:34:36;7.07;;;2.95;;
52274;SDS011;38228;50.940;4.024;2023-12-28T03:37:02;8.48;;;2.63;;
52274;SDS011;38228;50.940;4.024;2023-12-28T03:39:28;9.02;;;2.53;;
52274;SDS011;38228;50.940;4.024;2023-12-28T03:41:54;8.55;;;2.60;;
52274;SDS011;38228;50.940;4.024;2023-12-28T03:44:20;10.43;;;2.85;;
52274;SDS011;38228;50.940;4.024;2023-12-28T03:46:49;7.80;;;2.50;;
52274;SDS011;38228;50.940;4.024;2023-12-28T03:49:18;9.05;;;3.03;;
52274;SDS011;38228;50.940;4.024;2023-12-28T03:51:45;10.90;;;2.35;;
52274;SDS011;38228;50.940;4.024;2023-12-28T03:54:12;13.00;;;2.72;;
52274;SDS011;38228;50.940;4.024;2023-12-28T03:56:40;5.05;;;2.17;;
52274;SDS011;38228;50.940;4.024;2023-12-28T03:59:08;9.23;;;2.65;;
52274;SDS011;38228;50.940;4.024;2023-12-28T04:01:34;8.25;;;2.65;;
52274;SDS011;38228;50.940;4.024;2023-12-28T04:03:59;9.25;;;2.42;;
52274;SDS011;38228;50.940;4.024;2023-12-28T04:06:25;11.35;;;3.00;;
52274;SDS011;38228;50.940;4.024;2023-12-28T04:08:51;8.98;;;2.42;;
52274;SDS011;38228;50.940;4.024;2023-12-28T04:11:17;7.15;;;2.63;;
52274;SDS011;38228;50.940;4.024;2023-12-28T04:13:43;12.40;;;2.90;;
52274;SDS011;38228;50.940;4.024;2023-12-28T04:16:11;17.73;;;3.13;;
52274;SDS011;38228;50.940;4.024;2023-12-28T04:18:38;9.48;;;2.42;;
52274;SDS011;38228;50.940;4.024;2023-12-28T04:21:07;7.63;;;2.63;;
52274;SDS011;38228;50.940;4.024;2023-12-28T04:23:34;15.35;;;3.42;;
52274;SDS011;38228;50.940;4.024;2023-12-28T04:26:00;10.05;;;2.20;;
52274;SDS011;38228;50.940;4.024;2023-12-28T04:28:26;10.15;;;2.88;;
52274;SDS011;38228;50.940;4.024;2023-12-28T04:30:52;13.98;;;2.63;;
52274;SDS011;38228;50.940;4.024;2023-12-28T04:33:17;9.98;;;2.60;;
52274;SDS011;38228;50.940;4.024;2023-12-28T04:35:44;9.48;;;2.40;;
52274;SDS011;38228;50.940;4.024;2023-12-28T04:38:10;11.95;;;2.50;;
52274;SDS011;38228;50.940;4.024;2023-12-28T04:40:36;10.82;;;2.25;;
52274;SDS011;38228;50.940;4.024;2023-12-28T04:43:02;12.60;;;2.50;;
52274;SDS011;38228;50.940;4.024;2023-12-28T04:45:28;9.90;;;2.30;;
52274;SDS011;38228;50.940;4.024;2023-12-28T04:47:54;9.35;;;2.30;;
52274;SDS011;38228;50.940;4.024;2023-12-28T04:50:20;8.75;;;2.40;;
52274;SDS011;38228;50.940;4.024;2023-12-28T04:52:45;11.25;;;2.20;;
52274;SDS011;38228;50.940;4.024;2023-12-28T04:55:11;10.23;;;2.33;;
52274;SDS011;38228;50.940;4.024;2023-12-28T04:57:37;12.80;;;2.75;;
52274;SDS011;38228;50.940;4.024;2023-12-28T05:00:03;16.38;;;2.33;;
52274;SDS011;38228;50.940;4.024;2023-12-28T05:02:29;12.10;;;2.92;;
52274;SDS011;38228;50.940;4.024;2023-12-28T05:04:55;12.30;;;2.30;;
52274;SDS011;38228;50.940;4.024;2023-12-28T05:07:21;12.90;;;2.40;;
52274;SDS011;38228;50.940;4.024;2023-12-28T05:09:46;8.20;;;2.20;;
52274;SDS011;38228;50.940;4.024;2023-12-28T05:12:12;12.13;;;2.13;;
52274;SDS011;38228;50.940;4.024;2023-12-28T05:14:38;12.07;;;2.42;;
52274;SDS011;38228;50.940;4.024;2023-12-28T05:17:04;16.08;;;2.70;;
52274;SDS011;38228;50.940;4.024;2023-12-28T05:19:29;13.32;;;2.53;;
52274;SDS011;38228;50.940;4.024;2023-12-28T05:21:55;20.60;;;3.05;;
52274;SDS011;38228;50.940;4.024;2023-12-28T05:24:21;10.27;;;2.38;;
52274;SDS011;38228;50.940;4.024;2023-12-28T05:26:46;13.38;;;2.00;;
52274;SDS011;38228;50.940;4.024;2023-12-28T05:29:12;11.35;;;2.10;;
52274;SDS011;38228;50.940;4.024;2023-12-28T05:31:38;13.05;;;2.20;;
52274;SDS011;38228;50.940;4.024;2023-12-28T05:34:03;15.45;;;2.20;;
52274;SDS011;38228;50.940;4.024;2023-12-28T05:36:30;14.02;;;2.42;;
52274;SDS011;38228;50.940;4.024;2023-12-28T05:38:56;10.57;;;2.30;;
52274;SDS011;38228;50.940;4.024;2023-12-28T05:41:21;15.07;;;2.42;;
52274;SDS011;38228;50.940;4.024;2023-12-28T05:43:47;11.75;;;1.73;;
52274;SDS011;38228;50.940;4.024;2023-12-28T05:46:13;26.50;;;3.15;;
52274;SDS011;38228;50.940;4.024;2023-12-28T05:48:39;13.23;;;2.38;;
52274;SDS011;38228;50.940;4.024;2023-12-28T05:51:04;15.18;;;2.15;;
52274;SDS011;38228;50.940;4.024;2023-12-28T05:53:30;14.57;;;2.28;;
52274;SDS011;38228;50.940;4.024;2023-12-28T05:55:56;12.20;;;3.00;;
52274;SDS011;38228;50.940;4.024;2023-12-28T05:58:21;13.55;;;2.33;;
52274;SDS011;38228;50.940;4.024;2023-12-28T06:00:47;14.55;;;2.85;;
52274;SDS011;38228;50.940;4.024;2023-12-28T06:03:13;18.70;;;2.88;;
52274;SDS011;38228;50.940;4.024;2023-12-28T06:05:39;17.13;;;2.45;;
52274;SDS011;38228;50.940;4.024;2023-12-28T06:08:05;17.52;;;2.90;;
52274;SDS011;38228;50.940;4.024;2023-12-28T06:10:31;14.35;;;2.25;;
52274;SDS011;38228;50.940;4.024;2023-12-28T06:12:56;17.83;;;2.40;;
52274;SDS011;38228;50.940;4.024;2023-12-28T06:15:22;16.90;;;2.47;;
52274;SDS011;38228;50.940;4.024;2023-12-28T06:17:48;15.85;;;2.30;;
52274;SDS011;38228;50.940;4.024;2023-12-28T06:20:14;13.57;;;2.20;;
52274;SDS011;38228;50.940;4.024;2023-12-28T06:22:40;11.55;;;2.42;;
52274;SDS011;38228;50.940;4.024;2023-12-28T06:25:06;16.27;;;2.92;;
52274;SDS011;38228;50.940;4.024;2023-12-28T06:27:31;13.70;;;2.83;;
52274;SDS011;38228;50.940;4.024;2023-12-28T06:29:57;12.60;;;2.20;;
52274;SDS011;38228;50.940;4.024;2023-12-28T06:32:23;19.98;;;2.58;;
52274;SDS011;38228;50.940;4.024;2023-12-28T06:34:49;16.85;;;2.25;;
52274;SDS011;38228;50.940;4.024;2023-12-28T06:37:15;17.00;;;2.10;;
52274;SDS011;38228;50.940;4.024;2023-12-28T06:39:41;17.52;;;2.42;;
52274;SDS011;38228;50.940;4.024;2023-12-28T06:42:06;13.90;;;2.33;;
52274;SDS011;38228;50.940;4.024;2023-12-28T06:44:32;13.55;;;2.45;;
52274;SDS011;38228;50.940;4.024;2023-12-28T06:46:58;16.17;;;2.28;;
52274;SDS011;38228;50.940;4.024;2023-12-28T06:49:24;20.02;;;2.40;;
52274;SDS011;38228;50.940;4.024;2023-12-28T06:51:51;11.00;;;2.22;;
52274;SDS011;38228;50.940;4.024;2023-12-28T06:54:17;16.08;;;2.35;;
52274;SDS011;38228;50.940;4.024;2023-12-28T06:56:42;19.98;;;2.35;;
52274;SDS011;38228;50.940;4.024;2023-12-28T06:59:08;13.60;;;2.42;;
52274;SDS011;38228;50.940;4.024;2023-12-28T07:01:38;15.77;;;1.90;;
52274;SDS011;38228;50.940;4.024;2023-12-28T07:04:04;11.80;;;3.88;;
52274;SDS011;38228;50.940;4.024;2023-12-28T07:06:30;18.33;;;3.20;;
52274;SDS011;38228;50.940;4.024;2023-12-28T07:08:55;20.98;;;2.90;;
52274;SDS011;38228;50.940;4.024;2023-12-28T07:11:21;15.60;;;2.22;;
52274;SDS011;38228;50.940;4.024;2023-12-28T07:13:47;18.50;;;2.65;;
52274;SDS011;38228;50.940;4.024;2023-12-28T07:16:13;17.17;;;2.38;;
52274;SDS011;38228;50.940;4.024;2023-12-28T07:18:39;17.48;;;2.72;;
52274;SDS011;38228;50.940;4.024;2023-12-28T07:21:04;18.00;;;2.70;;
52274;SDS011;38228;50.940;4.024;2023-12-28T07:23:34;17.27;;;2.13;;
52274;SDS011;38228;50.940;4.024;2023-12-28T07:26:00;18.25;;;2.60;;
52274;SDS011;38228;50.940;4.024;2023-12-28T07:28:25;16.30;;;2.90;;
52274;SDS011;38228;50.940;4.024;2023-12-28T07:30:51;15.63;;;2.72;;
52274;SDS011;38228;50.940;4.024;2023-12-28T07:33:17;19.23;;;2.58;;
52274;SDS011;38228;50.940;4.024;2023-12-28T07:35:42;15.80;;;2.45;;
52274;SDS011;38228;50.940;4.024;2023-12-28T07:38:08;18.58;;;2.95;;
52274;SDS011;38228;50.940;4.024;2023-12-28T07:40:34;17.40;;;2.83;;
52274;SDS011;38228;50.940;4.024;2023-12-28T07:42:59;20.20;;;2.45;;
52274;SDS011;38228;50.940;4.024;2023-12-28T07:45:26;16.75;;;2.45;;
52274;SDS011;38228;50.940;4.024;2023-12-28T07:47:51;24.98;;;3.30;;
52274;SDS011;38228;50.940;4.024;2023-12-28T07:50:17;16.08;;;2.90;;
52274;SDS011;38228;50.940;4.024;2023-12-28T07:52:44;18.23;;;3.38;;
52274;SDS011;38228;50.940;4.024;2023-12-28T07:55:11;30.73;;;2.92;;
52274;SDS011;38228;50.940;4.024;2023-12-28T07:57:36;21.23;;;2.97;;
52274;SDS011;38228;50.940;4.024;2023-12-28T08:00:02;16.48;;;2.65;;
52274;SDS011;38228;50.940;4.024;2023-12-28T08:02:28;17.58;;;2.78;;
52274;SDS011;38228;50.940;4.024;2023-12-28T08:04:54;19.60;;;3.40;;
52274;SDS011;38228;50.940;4.024;2023-12-28T08:07:20;20.85;;;2.47;;
52274;SDS011;38228;50.940;4.024;2023-12-28T08:09:46;19.85;;;3.25;;
52274;SDS011;38228;50.940;4.024;2023-12-28T08:12:11;14.25;;;2.22;;
52274;SDS011;38228;50.940;4.024;2023-12-28T08:14:37;15.77;;;2.75;;
52274;SDS011;38228;50.940;4.024;2023-12-28T08:17:03;22.33;;;2.78;;
52274;SDS011;38228;50.940;4.024;2023-12-28T08:19:28;18.27;;;2.92;;
52274;SDS011;38228;50.940;4.024;2023-12-28T08:21:54;17.02;;;2.35;;
52274;SDS011;38228;50.940;4.024;2023-12-28T08:24:20;28.67;;;3.38;;
52274;SDS011;38228;50.940;4.024;2023-12-28T08:26:46;19.05;;;2.90;;
52274;SDS011;38228;50.940;4.024;2023-12-28T08:29:11;14.85;;;2.58;;
52274;SDS011;38228;50.940;4.024;2023-12-28T08:31:37;18.25;;;3.33;;
52274;SDS011;38228;50.940;4.024;2023-12-28T08:34:03;18.38;;;3.22;;
52274;SDS011;38228;50.940;4.024;2023-12-28T08:36:29;25.58;;;3.40;;
52274;SDS011;38228;50.940;4.024;2023-12-28T08:38:54;18.15;;;2.83;;
52274;SDS011;38228;50.940;4.024;2023-12-28T08:41:21;21.73;;;2.72;;
52274;SDS011;38228;50.940;4.024;2023-12-28T08:43:49;23.58;;;2.85;;
52274;SDS011;38228;50.940;4.024;2023-12-28T08:46:16;23.17;;;3.10;;
52274;SDS011;38228;50.940;4.024;2023-12-28T08:48:42;28.42;;;3.55;;
52274;SDS011;38228;50.940;4.024;2023-12-28T08:51:11;24.17;;;3.75;;
52274;SDS011;38228;50.940;4.024;2023-12-28T08:53:39;18.73;;;2.10;;
52274;SDS011;38228;50.940;4.024;2023-12-28T08:56:18;22.27;;;3.17;;
52274;SDS011;38228;50.940;4.024;2023-12-28T08:58:45;26.40;;;3.38;;
52274;SDS011;38228;50.940;4.024;2023-12-28T09:01:18;21.75;;;3.03;;
52274;SDS011;38228;50.940;4.024;2023-12-28T09:03:50;18.60;;;2.65;;
52274;SDS011;38228;50.940;4.024;2023-12-28T09:06:18;18.02;;;2.88;;
52274;SDS011;38228;50.940;4.024;2023-12-28T09:08:44;26.60;;;3.53;;
52274;SDS011;38228;50.940;4.024;2023-12-28T09:11:12;20.15;;;3.15;;
52274;SDS011;38228;50.940;4.024;2023-12-28T09:13:39;24.08;;;2.75;;
52274;SDS011;38228;50.940;4.024;2023-12-28T09:16:09;36.80;;;3.35;;
52274;SDS011;38228;50.940;4.024;2023-12-28T09:18:38;16.35;;;2.80;;
52274;SDS011;38228;50.940;4.024;2023-12-28T09:21:05;20.13;;;2.85;;
52274;SDS011;38228;50.940;4.024;2023-12-28T09:23:31;17.17;;;2.63;;
52274;SDS011;38228;50.940;4.024;2023-12-28T09:26:04;17.80;;;3.13;;
52274;SDS011;38228;50.940;4.024;2023-12-28T09:28:30;22.58;;;3.45;;
52274;SDS011;38228;50.940;4.024;2023-12-28T09:30:57;16.70;;;2.58;;
52274;SDS011;38228;50.940;4.024;2023-12-28T09:33:23;13.60;;;2.28;;
52274;SDS011;38228;50.940;4.024;2023-12-28T09:35:49;24.67;;;2.88;;
52274;SDS011;38228;50.940;4.024;2023-12-28T09:38:15;21.88;;;3.20;;
52274;SDS011;38228;50.940;4.024;2023-12-28T09:40:43;20.02;;;3.60;;
52274;SDS011;38228;50.940;4.024;2023-12-28T09:45:40;18.88;;;3.08;;
52274;SDS011;38228;50.940;4.024;2023-12-28T09:48:06;21.00;;;3.25;;
52274;SDS011;38228;50.940;4.024;2023-12-28T09:50:32;11.02;;;2.30;;
52274;SDS011;38228;50.940;4.024;2023-12-28T09:52:58;23.60;;;3.53;;
52274;SDS011;38228;50.940;4.024;2023-12-28T09:55:24;24.58;;;3.50;;
52274;SDS011;38228;50.940;4.024;2023-12-28T09:57:51;18.88;;;3.20;;
52274;SDS011;38228;50.940;4.024;2023-12-28T10:00:17;22.90;;;3.13;;
52274;SDS011;38228;50.940;4.024;2023-12-28T10:02:43;19.10;;;3.40;;
52274;SDS011;38228;50.940;4.024;2023-12-28T10:05:13;20.15;;;3.00;;
52274;SDS011;38228;50.940;4.024;2023-12-28T10:07:42;18.75;;;2.72;;
52274;SDS011;38228;50.940;4.024;2023-12-28T10:10:10;21.33;;;3.55;;
52274;SDS011;38228;50.940;4.024;2023-12-28T10:12:36;18.55;;;3.22;;
52274;SDS011;38228;50.940;4.024;2023-12-28T10:15:03;29.67;;;5.68;;
52274;SDS011;38228;50.940;4.024;2023-12-28T10:17:29;18.95;;;3.13;;
52274;SDS011;38228;50.940;4.024;2023-12-28T10:19:57;23.48;;;3.38;;
52274;SDS011;38228;50.940;4.024;2023-12-28T10:22:28;24.55;;;4.25;;
52274;SDS011;38228;50.940;4.024;2023-12-28T10:24:54;20.67;;;3.25;;
52274;SDS011;38228;50.940;4.024;2023-12-28T10:27:20;24.48;;;4.18;;
52274;SDS011;38228;50.940;4.024;2023-12-28T10:29:46;26.05;;;3.55;;
52274;SDS011;38228;50.940;4.024;2023-12-28T10:32:11;21.92;;;3.58;;
52274;SDS011;38228;50.940;4.024;2023-12-28T10:34:38;26.45;;;3.50;;
52274;SDS011;38228;50.940;4.024;2023-12-28T10:37:04;19.00;;;3.30;;
52274;SDS011;38228;50.940;4.024;2023-12-28T10:39:31;18.33;;;3.78;;
52274;SDS011;38228;50.940;4.024;2023-12-28T10:41:59;22.00;;;3.50;;
52274;SDS011;38228;50.940;4.024;2023-12-28T10:44:29;19.73;;;3.53;;
52274;SDS011;38228;50.940;4.024;2023-12-28T10:47:00;17.02;;;3.05;;
52274;SDS011;38228;50.940;4.024;2023-12-28T10:49:27;16.30;;;2.70;;
52274;SDS011;38228;50.940;4.024;2023-12-28T10:51:58;18.15;;;2.80;;
52274;SDS011;38228;50.940;4.024;2023-12-28T10:54:43;25.35;;;3.15;;
52274;SDS011;38228;50.940;4.024;2023-12-28T10:57:17;23.23;;;3.10;;
52274;SDS011;38228;50.940;4.024;2023-12-28T10:59:57;21.85;;;2.85;;
52274;SDS011;38228;50.940;4.024;2023-12-28T11:02:38;19.92;;;3.33;;
52274;SDS011;38228;50.940;4.024;2023-12-28T11:05:09;16.35;;;2.50;;
52274;SDS011;38228;50.940;4.024;2023-12-28T11:07:36;18.88;;;3.17;;
52274;SDS011;38228;50.940;4.024;2023-12-28T11:10:05;23.73;;;3.20;;
52274;SDS011;38228;50.940;4.024;2023-12-28T11:12:32;24.38;;;3.58;;
52274;SDS011;38228;50.940;4.024;2023-12-28T11:14:59;19.20;;;3.03;;
52274;SDS011;38228;50.940;4.024;2023-12-28T11:17:24;22.00;;;3.00;;
52274;SDS011;38228;50.940;4.024;2023-12-28T11:19:51;17.05;;;3.17;;
52274;SDS011;38228;50.940;4.024;2023-12-28T11:22:19;26.77;;;3.00;;
52274;SDS011;38228;50.940;4.024;2023-12-28T11:24:46;17.10;;;3.33;;
52274;SDS011;38228;50.940;4.024;2023-12-28T11:27:11;14.02;;;3.30;;
52274;SDS011;38228;50.940;4.024;2023-12-28T11:29:38;19.13;;;2.55;;
52274;SDS011;38228;50.940;4.024;2023-12-28T11:32:04;25.20;;;3.58;;
52274;SDS011;38228;50.940;4.024;2023-12-28T11:34:32;20.55;;;3.05;;
52274;SDS011;38228;50.940;4.024;2023-12-28T11:37:04;24.00;;;3.28;;
52274;SDS011;38228;50.940;4.024;2023-12-28T11:39:37;15.93;;;2.90;;
52274;SDS011;38228;50.940;4.024;2023-12-28T11:42:08;23.50;;;3.80;;
52274;SDS011;38228;50.940;4.024;2023-12-28T11:44:41;20.35;;;3.35;;
52274;SDS011;38228;50.940;4.024;2023-12-28T11:47:15;19.42;;;3.28;;
52274;SDS011;38228;50.940;4.024;2023-12-28T11:49:43;23.42;;;2.80;;
52274;SDS011;38228;50.940;4.024;2023-12-28T11:52:21;18.17;;;2.60;;
52274;SDS011;38228;50.940;4.024;2023-12-28T11:54:54;19.90;;;3.10;;
52274;SDS011;38228;50.940;4.024;2023-12-28T11:57:21;15.70;;;2.95;;
52274;SDS011;38228;50.940;4.024;2023-12-28T11:59:48;16.85;;;2.95;;
52274;SDS011;38228;50.940;4.024;2023-12-28T12:02:18;17.05;;;2.50;;
52274;SDS011;38228;50.940;4.024;2023-12-28T12:04:45;19.88;;;3.17;;
52274;SDS011;38228;50.940;4.024;2023-12-28T12:07:10;20.92;;;3.10;;
52274;SDS011;38228;50.940;4.024;2023-12-28T12:09:36;15.90;;;3.42;;
52274;SDS011;38228;50.940;4.024;2023-12-28T12:12:02;23.38;;;3.33;;
52274;SDS011;38228;50.940;4.024;2023-12-28T12:14:28;22.50;;;3.30;;
52274;SDS011;38228;50.940;4.024;2023-12-28T12:16:55;21.10;;;3.25;;
52274;SDS011;38228;50.940;4.024;2023-12-28T12:19:24;20.38;;;2.97;;
52274;SDS011;38228;50.940;4.024;2023-12-28T12:21:57;21.42;;;3.17;;
52274;SDS011;38228;50.940;4.024;2023-12-28T12:24:23;21.83;;;3.05;;
52274;SDS011;38228;50.940;4.024;2023-12-28T12:26:49;26.05;;;3.35;;
52274;SDS011;38228;50.940;4.024;2023-12-28T12:29:16;19.48;;;2.95;;
52274;SDS011;38228;50.940;4.024;2023-12-28T12:31:42;21.27;;;3.20;;
52274;SDS011;38228;50.940;4.024;2023-12-28T12:34:14;17.10;;;2.58;;
52274;SDS011;38228;50.940;4.024;2023-12-28T12:36:41;21.80;;;3.47;;
52274;SDS011;38228;50.940;4.024;2023-12-28T12:39:07;24.55;;;3.55;;
52274;SDS011;38228;50.940;4.024;2023-12-28T12:41:36;20.08;;;2.97;;
52274;SDS011;38228;50.940;4.024;2023-12-28T12:44:02;18.50;;;3.20;;
52274;SDS011;38228;50.940;4.024;2023-12-28T12:46:29;27.42;;;3.17;;
52274;SDS011;38228;50.940;4.024;2023-12-28T12:48:58;26.38;;;4.05;;
52274;SDS011;38228;50.940;4.024;2023-12-28T12:51:26;20.10;;;3.05;;
52274;SDS011;38228;50.940;4.024;2023-12-28T12:53:56;22.40;;;2.85;;
52274;SDS011;38228;50.940;4.024;2023-12-28T12:56:27;17.63;;;2.80;;
52274;SDS011;38228;50.940;4.024;2023-12-28T12:58:53;18.33;;;3.20;;
52274;SDS011;38228;50.940;4.024;2023-12-28T13:01:20;15.18;;;2.65;;
52274;SDS011;38228;50.940;4.024;2023-12-28T13:03:46;23.33;;;3.53;;
52274;SDS011;38228;50.940;4.024;2023-12-28T13:06:11;17.48;;;2.67;;
52274;SDS011;38228;50.940;4.024;2023-12-28T13:08:37;19.92;;;2.90;;
52274;SDS011;38228;50.940;4.024;2023-12-28T13:11:03;20.20;;;2.83;;
52274;SDS011;38228;50.940;4.024;2023-12-28T13:13:32;20.55;;;2.88;;
52274;SDS011;38228;50.940;4.024;2023-12-28T13:15:58;16.65;;;2.60;;
52274;SDS011;38228;50.940;4.024;2023-12-28T13:18:23;13.25;;;2.50;;
52274;SDS011;38228;50.940;4.024;2023-12-28T13:20:49;14.90;;;2.15;;
52274;SDS011;38228;50.940;4.024;2023-12-28T13:23:15;18.83;;;3.15;;
52274;SDS011;38228;50.940;4.024;2023-12-28T13:25:41;18.23;;;2.58;;
52274;SDS011;38228;50.940;4.024;2023-12-28T13:28:08;24.13;;;3.28;;
52274;SDS011;38228;50.940;4.024;2023-12-28T13:30:34;20.48;;;4.03;;
52274;SDS011;38228;50.940;4.024;2023-12-28T13:33:01;22.92;;;3.08;;
52274;SDS011;38228;50.940;4.024;2023-12-28T13:35:28;22.08;;;3.15;;
52274;SDS011;38228;50.940;4.024;2023-12-28T13:37:53;22.58;;;2.88;;
52274;SDS011;38228;50.940;4.024;2023-12-28T13:40:20;20.70;;;2.78;;
52274;SDS011;38228;50.940;4.024;2023-12-28T13:42:46;18.58;;;3.13;;
52274;SDS011;38228;50.940;4.024;2023-12-28T13:45:11;18.13;;;2.78;;
52274;SDS011;38228;50.940;4.024;2023-12-28T13:47:37;24.65;;;3.38;;
52274;SDS011;38228;50.940;4.024;2023-12-28T13:50:03;18.40;;;3.10;;
52274;SDS011;38228;50.940;4.024;2023-12-28T13:52:31;28.15;;;2.90;;
52274;SDS011;38228;50.940;4.024;2023-12-28T13:54:57;21.58;;;3.25;;
52274;SDS011;38228;50.940;4.024;2023-12-28T13:57:22;23.42;;;3.63;;
52274;SDS011;38228;50.940;4.024;2023-12-28T13:59:48;14.77;;;2.75;;
52274;SDS011;38228;50.940;4.024;2023-12-28T14:02:14;28.08;;;2.92;;
52274;SDS011;38228;50.940;4.024;2023-12-28T14:04:40;22.35;;;3.00;;
52274;SDS011;38228;50.940;4.024;2023-12-28T14:07:05;18.73;;;3.10;;
52274;SDS011;38228;50.940;4.024;2023-12-28T14:09:31;17.67;;;3.10;;
52274;SDS011;38228;50.940;4.024;2023-12-28T14:11:58;22.45;;;3.03;;
52274;SDS011;38228;50.940;4.024;2023-12-28T14:14:24;18.55;;;3.22;;
52274;SDS011;38228;50.940;4.024;2023-12-28T14:16:49;19.42;;;3.08;;
52274;SDS011;38228;50.940;4.024;2023-12-28T14:19:15;13.40;;;2.78;;
52274;SDS011;38228;50.940;4.024;2023-12-28T14:21:41;18.90;;;2.70;;
52274;SDS011;38228;50.940;4.024;2023-12-28T14:24:07;15.48;;;2.88;;
52274;SDS011;38228;50.940;4.024;2023-12-28T14:26:33;17.73;;;2.55;;
52274;SDS011;38228;50.940;4.024;2023-12-28T14:29:02;18.90;;;2.97;;
52274;SDS011;38228;50.940;4.024;2023-12-28T14:31:30;17.05;;;2.63;;
52274;SDS011;38228;50.940;4.024;2023-12-28T14:33:56;19.90;;;3.00;;
52274;SDS011;38228;50.940;4.024;2023-12-28T14:36:35;18.98;;;2.65;;
52274;SDS011;38228;50.940;4.024;2023-12-28T14:39:03;26.00;;;2.97;;